createdAt,value
2023-01-15T00:01:05.776Z,11.82
2023-01-15T00:02:11.637Z,11.90
2023-01-15T00:03:15.728Z,10.73
2023-01-15T00:04:20.726Z,11.95
2023-01-15T00:05:24.985Z,11.90
2023-01-15T00:06:28.746Z,12.23
2023-01-15T00:07:34.062Z,11.65
2023-01-15T00:08:38.102Z,11.77
2023-01-15T00:09:43.078Z,11.93
2023-01-15T00:10:46.065Z,12.05
2023-01-15T00:11:49.725Z,11.27
2023-01-15T00:12:54.110Z,11.40
2023-01-15T00:13:57.556Z,10.98
2023-01-15T00:15:01.991Z,12.68
2023-01-15T00:16:13.644Z,11.23
2023-01-15T00:17:18.575Z,11.48
2023-01-15T00:18:22.154Z,11.65
2023-01-15T00:19:26.580Z,10.80
2023-01-15T00:20:36.594Z,11.27
2023-01-15T00:21:41.574Z,11.20
2023-01-15T00:22:44.920Z,11.13
2023-01-15T00:24:09.441Z,11.15
2023-01-15T00:25:32.886Z,11.50
2023-01-15T00:26:59.824Z,10.98
2023-01-15T00:28:08.003Z,11.45
2023-01-15T00:29:33.134Z,10.82
2023-01-15T00:30:41.969Z,10.38
2023-01-15T00:31:58.323Z,11.07
2023-01-15T00:33:01.553Z,10.90
2023-01-15T00:34:07.537Z,10.80
2023-01-15T00:35:23.094Z,11.25
2023-01-15T00:36:31.937Z,11.25
2023-01-15T00:37:35.673Z,10.80
2023-01-15T00:38:39.838Z,11.20
2023-01-15T00:39:45.494Z,11.23
2023-01-15T00:40:53.504Z,10.63
2023-01-15T00:41:58.088Z,11.57
2023-01-15T00:43:04.927Z,11.55
2023-01-15T00:44:11.662Z,12.07
2023-01-15T00:45:17.625Z,11.00
2023-01-15T00:46:22.035Z,11.73
2023-01-15T00:47:26.519Z,11.30
2023-01-15T00:48:34.329Z,11.05
2023-01-15T00:49:44.511Z,10.13
2023-01-15T00:50:48.011Z,10.52
2023-01-15T00:51:52.320Z,12.18
2023-01-15T00:52:55.755Z,11.30
2023-01-15T00:54:01.692Z,10.82
2023-01-15T00:55:07.647Z,11.43
2023-01-15T00:56:12.297Z,10.57
2023-01-15T00:57:15.750Z,11.02
2023-01-15T00:58:22.913Z,10.77
2023-01-15T00:59:28.065Z,11.43
2023-01-15T01:00:32.208Z,10.68
2023-01-15T01:01:36.175Z,11.45
2023-01-15T01:02:40.366Z,11.32
2023-01-15T01:03:50.383Z,11.52
2023-01-15T01:04:55.515Z,10.35
2023-01-15T01:06:05.474Z,11.25
2023-01-15T01:07:08.741Z,12.00
2023-01-15T01:08:13.458Z,11.55
2023-01-15T01:10:23.929Z,11.32
2023-01-15T01:11:34.297Z,12.25
2023-01-15T01:12:39.345Z,10.68
2023-01-15T01:13:48.483Z,11.27
2023-01-15T01:14:52.813Z,11.00
2023-01-15T01:15:59.004Z,11.23
2023-01-15T01:17:04.653Z,10.45
2023-01-15T01:18:08.303Z,11.07
2023-01-15T01:19:16.821Z,11.00
2023-01-15T01:20:21.893Z,11.02
2023-01-15T01:21:26.764Z,11.55
2023-01-15T01:22:34.594Z,10.32
2023-01-15T01:23:40.346Z,11.43
2023-01-15T01:24:44.791Z,12.07
2023-01-15T01:25:48.750Z,10.73
2023-01-15T01:26:54.322Z,10.75
2023-01-15T01:27:57.929Z,11.15
2023-01-15T01:29:01.414Z,10.82
2023-01-15T01:30:06.946Z,10.70
2023-01-15T01:31:12.091Z,11.48
2023-01-15T01:32:15.543Z,11.15
2023-01-15T01:33:20.419Z,11.27
2023-01-15T01:34:25.392Z,11.25
2023-01-15T01:35:35.577Z,11.68
2023-01-15T01:36:46.044Z,10.35
2023-01-15T01:37:56.886Z,10.90
2023-01-15T01:39:01.963Z,10.52
2023-01-15T01:40:08.842Z,11.60
2023-01-15T01:41:14.127Z,10.85
2023-01-15T01:42:19.559Z,11.15
2023-01-15T01:43:30.855Z,10.52
2023-01-15T01:44:37.377Z,11.48
2023-01-15T01:45:42.264Z,10.43
2023-01-15T01:46:48.749Z,11.35
2023-01-15T01:48:25.783Z,11.27
2023-01-15T01:49:31.671Z,10.88
2023-01-15T01:50:38.850Z,11.07
2023-01-15T01:51:50.561Z,11.27
2023-01-15T01:52:59.237Z,10.98
2023-01-15T01:54:04.253Z,11.27
2023-01-15T01:55:10.267Z,10.90
2023-01-15T01:56:13.568Z,10.88
2023-01-15T01:57:19.802Z,11.50
2023-01-15T01:58:25.781Z,11.07
2023-01-15T01:59:32.453Z,11.82
2023-01-15T02:00:45.708Z,11.90
2023-01-15T02:01:50.292Z,11.60
2023-01-15T02:02:58.592Z,11.43
2023-01-15T02:04:04.050Z,10.95
2023-01-15T02:05:09.920Z,11.73
2023-01-15T02:06:15.054Z,11.77
2023-01-15T02:07:18.493Z,11.13
2023-01-15T02:08:23.068Z,11.20
2023-01-15T02:09:31.202Z,11.07
2023-01-15T02:10:36.390Z,11.05
2023-01-15T02:11:41.795Z,10.63
2023-01-15T02:12:52.809Z,11.43
2023-01-15T02:14:13.000Z,10.30
2023-01-15T02:15:37.696Z,10.45
2023-01-15T02:16:46.886Z,11.43
2023-01-15T02:18:13.287Z,11.15
2023-01-15T02:19:52.982Z,11.65
2023-01-15T02:21:11.119Z,10.50
2023-01-15T02:22:19.939Z,11.30
2023-01-15T02:23:41.952Z,11.88
2023-01-15T02:25:15.661Z,10.85
2023-01-15T02:26:39.627Z,11.07
2023-01-15T02:27:49.951Z,10.48
2023-01-15T02:28:59.867Z,11.88
2023-01-15T02:30:26.988Z,11.93
2023-01-15T02:31:54.936Z,11.02
2023-01-15T02:33:18.583Z,11.18
2023-01-15T02:34:34.987Z,12.10
2023-01-15T02:35:56.857Z,11.35
2023-01-15T02:37:23.287Z,11.07
2023-01-15T02:38:32.125Z,11.23
2023-01-15T02:39:40.960Z,11.95
2023-01-15T02:44:22.838Z,10.93
2023-01-15T02:45:40.019Z,10.90
2023-01-15T02:46:49.429Z,11.75
2023-01-15T02:47:58.264Z,11.07
2023-01-15T02:49:07.096Z,11.95
2023-01-15T02:50:21.686Z,11.63
2023-01-15T02:51:38.006Z,12.13
2023-01-15T02:52:48.028Z,12.73
2023-01-15T02:54:03.007Z,12.10
2023-01-15T02:55:20.016Z,12.07
2023-01-15T02:56:28.784Z,12.40
2023-01-15T02:57:39.249Z,12.25
2023-01-15T02:58:46.899Z,11.80
2023-01-15T03:00:01.838Z,11.48
2023-01-15T03:01:19.229Z,12.00
2023-01-15T03:02:30.645Z,13.25
2023-01-15T03:03:34.394Z,11.43
2023-01-15T03:04:59.670Z,11.55
2023-01-15T03:06:11.644Z,11.40
2023-01-15T03:07:27.954Z,11.80
2023-01-15T03:08:32.730Z,11.25
2023-01-15T03:09:37.965Z,11.65
2023-01-15T03:11:12.390Z,12.20
2023-01-15T03:12:27.782Z,10.52
2023-01-15T03:13:51.544Z,11.07
2023-01-15T03:15:40.693Z,11.30
2023-01-15T03:16:53.103Z,11.40
2023-01-15T03:17:56.972Z,12.57
2023-01-15T03:19:05.603Z,12.77
2023-01-15T03:21:31.056Z,11.95
2023-01-15T03:22:40.298Z,11.95
2023-01-15T03:23:50.538Z,12.20
2023-01-15T03:25:14.698Z,12.00
2023-01-15T03:26:23.669Z,11.30
2023-01-15T03:27:28.117Z,10.90
2023-01-15T03:28:37.280Z,11.88
2023-01-15T03:29:48.221Z,11.90
2023-01-15T03:30:54.011Z,13.73
2023-01-15T03:32:00.611Z,11.73
2023-01-15T03:33:05.757Z,11.73
2023-01-15T03:34:09.844Z,11.82
2023-01-15T03:35:41.517Z,11.95
2023-01-15T03:36:46.469Z,12.32
2023-01-15T03:37:50.853Z,11.48
2023-01-15T03:38:55.690Z,11.63
2023-01-15T03:40:16.654Z,12.50
2023-01-15T03:41:39.210Z,12.10
2023-01-15T03:43:26.015Z,12.25
2023-01-15T03:44:46.086Z,11.38
2023-01-15T03:45:55.939Z,10.90
2023-01-15T03:47:13.461Z,12.30
2023-01-15T03:48:28.319Z,12.18
2023-01-15T03:49:58.713Z,11.60
2023-01-15T03:51:41.243Z,11.63
2023-01-15T03:53:24.205Z,12.95
2023-01-15T03:55:16.350Z,10.88
2023-01-15T03:56:45.207Z,11.25
2023-01-15T03:58:01.206Z,11.60
2023-01-15T03:59:33.752Z,12.25
2023-01-15T04:00:52.915Z,10.88
2023-01-15T04:02:00.423Z,12.23
2023-01-15T04:03:11.502Z,12.18
2023-01-15T04:04:16.978Z,12.15
2023-01-15T04:05:22.401Z,11.75
2023-01-15T04:06:32.968Z,12.23
2023-01-15T04:07:37.618Z,12.80
2023-01-15T04:08:44.907Z,12.35
2023-01-15T04:09:50.751Z,12.18
2023-01-15T04:10:59.491Z,12.80
2023-01-15T04:12:06.913Z,12.52
2023-01-15T04:13:16.931Z,12.95
2023-01-15T04:14:19.940Z,12.27
2023-01-15T04:15:27.616Z,12.38
2023-01-15T04:16:34.762Z,12.93
2023-01-15T04:17:40.254Z,12.00
2023-01-15T04:18:44.605Z,12.73
2023-01-15T04:19:49.072Z,11.55
2023-01-15T04:20:53.088Z,11.73
2023-01-15T04:21:56.072Z,12.05
2023-01-15T04:23:03.653Z,13.35
2023-01-15T04:24:08.622Z,13.20
2023-01-15T04:25:13.082Z,12.73
2023-01-15T04:26:18.342Z,12.13
2023-01-15T04:27:22.686Z,12.75
2023-01-15T04:28:25.424Z,12.18
2023-01-15T04:29:29.786Z,11.38
2023-01-15T04:30:35.475Z,12.15
2023-01-15T04:31:38.860Z,12.13
2023-01-15T04:34:12.245Z,10.68
2023-01-15T04:35:16.107Z,12.80
2023-01-15T04:36:20.862Z,12.90
2023-01-15T04:37:23.895Z,12.88
2023-01-15T04:38:27.771Z,12.05
2023-01-15T04:39:30.878Z,13.05
2023-01-15T04:40:55.226Z,12.02
2023-01-15T04:42:27.642Z,11.30
2023-01-15T04:43:49.207Z,13.45
2023-01-15T04:44:56.787Z,13.50
2023-01-15T04:46:02.352Z,11.57
2023-01-15T04:47:07.234Z,13.00
2023-01-15T04:48:13.784Z,12.73
2023-01-15T04:49:19.516Z,13.00
2023-01-15T04:50:22.523Z,13.25
2023-01-15T04:51:26.727Z,12.88
2023-01-15T04:52:37.361Z,13.48
2023-01-15T04:53:41.081Z,13.25
2023-01-15T04:54:43.943Z,13.15
2023-01-15T04:55:48.358Z,13.30
2023-01-15T04:56:55.856Z,13.35
2023-01-15T04:58:00.147Z,12.68
2023-01-15T04:59:14.676Z,13.05
2023-01-15T05:00:18.501Z,13.32
2023-01-15T05:01:25.108Z,12.75
2023-01-15T05:02:29.597Z,14.20
2023-01-15T05:03:33.763Z,13.07
2023-01-15T05:04:37.954Z,13.02
2023-01-15T05:05:43.339Z,14.77
2023-01-15T05:06:50.124Z,13.82
2023-01-15T05:07:58.963Z,12.63
2023-01-15T05:09:08.542Z,12.48
2023-01-15T05:10:14.217Z,14.82
2023-01-15T05:11:25.153Z,13.20
2023-01-15T05:12:30.044Z,12.73
2023-01-15T05:13:36.158Z,13.63
2023-01-15T05:14:43.429Z,12.93
2023-01-15T05:15:49.931Z,13.40
2023-01-15T05:16:53.891Z,13.93
2023-01-15T05:17:58.145Z,13.20
2023-01-15T05:19:05.169Z,12.60
2023-01-15T05:20:11.540Z,13.90
2023-01-15T05:21:35.065Z,13.13
2023-01-15T05:22:38.514Z,13.38
2023-01-15T05:23:44.143Z,14.07
2023-01-15T05:24:47.320Z,13.77
2023-01-15T05:25:56.527Z,13.27
2023-01-15T05:27:00.870Z,13.82
2023-01-15T05:28:13.147Z,13.80
2023-01-15T05:29:18.483Z,13.68
2023-01-15T05:30:24.468Z,13.73
2023-01-15T05:31:28.451Z,13.75
2023-01-15T05:32:40.970Z,13.63
2023-01-15T05:33:51.267Z,14.95
2023-01-15T05:34:57.382Z,14.00
2023-01-15T05:36:06.938Z,13.88
2023-01-15T05:37:13.900Z,12.85
2023-01-15T05:38:24.132Z,13.25
2023-01-15T05:43:11.583Z,13.13
2023-01-15T05:44:17.791Z,14.13
2023-01-15T05:45:27.313Z,14.60
2023-01-15T05:46:42.908Z,13.32
2023-01-15T05:47:59.918Z,13.38
2023-01-15T05:49:19.994Z,15.40
2023-01-15T05:50:24.726Z,13.07
2023-01-15T05:52:50.828Z,14.20
2023-01-15T05:54:05.186Z,13.65
2023-01-15T05:55:13.240Z,14.27
2023-01-15T05:57:44.875Z,14.07
2023-01-15T05:58:54.535Z,13.57
2023-01-15T06:00:40.104Z,13.02
2023-01-15T06:01:46.866Z,13.35
2023-01-15T06:03:15.021Z,13.63
2023-01-15T06:04:21.718Z,15.38
2023-01-15T06:05:28.096Z,13.02
2023-01-15T06:06:41.983Z,14.60
2023-01-15T06:12:34.140Z,12.63
2023-01-15T06:13:42.408Z,12.82
2023-01-15T06:15:13.604Z,14.23
2023-01-15T06:16:27.876Z,13.35
2023-01-15T06:17:34.142Z,14.30
2023-01-15T06:18:42.438Z,15.80
2023-01-15T06:19:48.772Z,14.50
2023-01-15T06:21:05.703Z,14.63
2023-01-15T06:22:29.545Z,15.10
2023-01-15T06:23:45.615Z,14.63
2023-01-15T06:24:55.066Z,14.20
2023-01-15T06:26:02.283Z,14.63
2023-01-15T07:05:59.534Z,12.93
2023-01-15T08:37:01.766Z,14.45
2023-01-15T08:38:22.137Z,14.68
2023-01-15T08:39:29.262Z,15.18
2023-01-15T08:40:36.207Z,14.30
2023-01-15T08:41:45.797Z,15.48
2023-01-15T08:46:42.864Z,14.65
2023-01-15T08:47:47.572Z,15.57
2023-01-15T08:48:51.732Z,14.88
2023-01-15T08:49:58.057Z,15.95
2023-01-15T08:51:09.769Z,15.73
2023-01-15T08:57:32.056Z,14.63
2023-01-15T08:58:52.877Z,14.05
2023-01-15T09:02:45.277Z,14.57
2023-01-15T09:04:49.573Z,14.77
2023-01-15T09:57:22.910Z,12.35
2023-01-15T10:21:56.295Z,11.73
2023-01-15T10:38:08.558Z,11.82
2023-01-15T10:44:14.662Z,10.10
2023-01-15T10:49:30.082Z,10.45
2023-01-15T11:27:40.455Z,11.68
2023-01-15T11:29:30.198Z,11.70
2023-01-15T11:30:55.210Z,10.52
2023-01-15T11:33:57.687Z,10.30
2023-01-15T11:38:52.075Z,10.55
2023-01-15T11:42:42.662Z,10.27
2023-01-15T12:11:48.125Z,9.68
2023-01-15T12:25:33.903Z,8.90
2023-01-15T12:31:16.045Z,8.30
2023-01-15T12:33:02.457Z,9.73
2023-01-15T12:34:50.165Z,9.43
2023-01-15T12:36:32.139Z,9.05
2023-01-15T12:38:17.171Z,8.30
2023-01-15T12:39:50.692Z,8.88
2023-01-15T12:41:57.979Z,9.90
2023-01-15T12:44:20.403Z,8.45
2023-01-15T12:45:37.330Z,9.20
2023-01-15T12:46:59.161Z,9.00
2023-01-15T13:02:00.994Z,10.18
2023-01-15T13:04:52.319Z,10.02
2023-01-15T13:16:31.158Z,10.00
2023-01-15T13:31:46.550Z,10.18
2023-01-15T13:35:03.269Z,9.60
2023-01-15T13:38:48.640Z,10.20
2023-01-15T13:42:56.498Z,10.15
2023-01-15T13:52:42.903Z,10.63
2023-01-15T13:57:51.654Z,11.38
2023-01-15T13:59:52.769Z,10.82
2023-01-15T14:01:33.297Z,9.65
2023-01-15T14:03:09.251Z,10.23
2023-01-15T14:05:42.661Z,10.93
2023-01-15T14:06:54.463Z,10.32
2023-01-15T14:09:12.624Z,10.48
2023-01-15T14:10:24.242Z,10.27
2023-01-15T14:14:54.233Z,10.80
2023-01-15T14:16:19.509Z,10.18
2023-01-15T14:20:39.711Z,10.70
2023-01-15T14:22:25.306Z,9.98
2023-01-15T14:24:41.358Z,9.70
2023-01-15T14:28:44.938Z,10.68
2023-01-15T14:30:37.947Z,13.93
2023-01-15T14:43:12.827Z,11.25
2023-01-15T14:44:32.694Z,12.60
2023-01-15T14:45:39.792Z,11.70
2023-01-15T14:46:48.973Z,12.73
2023-01-15T14:50:42.449Z,11.98
2023-01-15T14:52:21.893Z,11.95
2023-01-15T14:53:50.305Z,11.90
2023-01-15T14:54:57.977Z,10.65
2023-01-15T14:56:24.508Z,11.95
2023-01-15T14:59:37.641Z,9.60
2023-01-15T15:00:58.185Z,9.57
2023-01-15T15:02:46.675Z,9.45
2023-01-15T15:04:25.649Z,10.38
2023-01-15T15:05:40.182Z,9.43
2023-01-15T15:07:07.079Z,10.52
2023-01-15T15:10:43.970Z,9.07
2023-01-15T15:12:24.598Z,9.82
2023-01-15T15:13:58.172Z,8.27
2023-01-15T15:15:21.652Z,9.25
2023-01-15T15:18:53.325Z,8.48
2023-01-15T15:20:46.885Z,8.85
2023-01-15T15:22:17.272Z,9.55
2023-01-15T15:23:52.560Z,9.52
2023-01-15T15:26:27.040Z,8.43
2023-01-15T15:27:43.882Z,8.80
2023-01-15T15:44:15.625Z,8.18
2023-01-15T15:45:56.086Z,9.75
2023-01-15T15:48:19.649Z,9.82
2023-01-15T15:49:41.945Z,10.82
2023-01-15T15:51:12.869Z,11.88
2023-01-15T15:52:40.928Z,11.30
2023-01-15T15:53:50.285Z,10.73
2023-01-15T15:55:05.167Z,12.70
2023-01-15T15:56:42.082Z,12.95
2023-01-15T15:57:50.364Z,12.75
2023-01-15T15:59:54.991Z,12.07
2023-01-15T16:04:02.596Z,13.50
2023-01-15T16:05:23.759Z,11.80
2023-01-15T16:06:34.687Z,13.38
2023-01-15T16:08:19.328Z,13.35
2023-01-15T16:34:22.523Z,13.57
2023-01-15T16:37:04.895Z,13.45
2023-01-15T16:39:57.646Z,13.95
2023-01-15T16:41:44.822Z,14.18
2023-01-15T16:43:12.449Z,14.20
2023-01-15T16:44:47.092Z,14.25
2023-01-15T16:46:33.683Z,13.93
2023-01-15T16:48:07.554Z,13.18
2023-01-15T16:49:30.819Z,13.98
2023-01-15T16:51:02.777Z,13.75
2023-01-15T16:52:39.813Z,14.43
2023-01-15T16:53:44.524Z,14.18
2023-01-15T16:54:55.349Z,15.10
2023-01-15T16:56:04.468Z,13.32
2023-01-15T16:57:38.459Z,14.90
2023-01-15T16:58:43.266Z,14.95
2023-01-15T17:01:47.788Z,14.02
2023-01-15T17:02:53.761Z,14.88
2023-01-15T17:04:01.254Z,15.02
2023-01-15T17:05:25.075Z,14.52
2023-01-15T17:06:30.504Z,15.30
2023-01-15T17:07:39.497Z,14.77
2023-01-15T17:08:51.793Z,14.48
2023-01-15T17:10:18.496Z,15.55
2023-01-15T17:11:32.256Z,13.82
2023-01-15T17:12:56.593Z,15.13
2023-01-15T17:14:29.772Z,13.52
2023-01-15T17:21:36.237Z,13.52
2023-01-15T17:24:36.408Z,13.77
2023-01-15T17:25:41.163Z,14.32
2023-01-15T17:26:49.121Z,13.50
2023-01-15T17:28:00.511Z,13.48
2023-01-15T17:29:17.282Z,14.15
2023-01-15T17:30:34.564Z,15.00
2023-01-15T17:31:49.902Z,14.63
2023-01-15T17:33:03.443Z,13.15
2023-01-15T17:34:16.249Z,13.55
2023-01-15T17:35:32.219Z,14.13
2023-01-15T17:36:42.467Z,13.63
2023-01-15T17:37:46.115Z,14.52
2023-01-15T17:38:54.843Z,15.07
2023-01-15T17:40:01.386Z,14.82
2023-01-15T17:41:17.694Z,14.50
2023-01-15T17:42:29.729Z,13.52
2023-01-15T17:43:42.649Z,13.55
2023-01-15T17:44:52.403Z,13.15
2023-01-15T17:45:58.498Z,13.15
2023-01-15T17:47:02.685Z,13.48
2023-01-15T17:48:10.925Z,15.20
2023-01-15T17:49:25.081Z,13.77
2023-01-15T17:50:42.418Z,13.95
2023-01-15T17:51:51.602Z,14.25
2023-01-15T17:53:15.388Z,13.77
2023-01-15T17:54:45.429Z,14.35
2023-01-15T17:56:17.694Z,13.82
2023-01-15T18:08:31.619Z,12.95
2023-01-15T18:09:40.195Z,13.20
2023-01-15T18:10:49.667Z,13.95
2023-01-15T18:11:58.104Z,13.80
2023-01-15T18:13:03.253Z,14.32
2023-01-15T18:14:09.061Z,14.23
2023-01-15T18:15:14.977Z,14.52
2023-01-15T18:16:19.364Z,14.68
2023-01-15T18:17:25.099Z,14.20
2023-01-15T18:18:36.823Z,14.70
2023-01-15T18:19:41.634Z,14.05
2023-01-15T18:20:47.839Z,13.93
2023-01-15T18:21:53.150Z,14.80
2023-01-15T18:22:55.464Z,14.85
2023-01-15T18:23:59.856Z,14.85
2023-01-15T18:25:07.084Z,14.00
2023-01-15T18:26:12.562Z,14.23
2023-01-15T18:27:19.513Z,13.95
2023-01-15T18:29:20.780Z,15.18
2023-01-15T18:30:35.130Z,12.75
2023-01-15T18:32:13.170Z,13.65
2023-01-15T18:33:19.476Z,14.73
2023-01-15T18:34:30.527Z,14.10
2023-01-15T18:35:38.737Z,14.70
2023-01-15T18:37:02.525Z,15.10
2023-01-15T18:38:39.632Z,14.27
2023-01-15T18:39:46.585Z,13.80
2023-01-15T18:40:57.353Z,16.25
2023-01-15T18:42:03.051Z,13.75
2023-01-15T18:43:27.441Z,14.40
2023-01-15T18:44:55.783Z,14.43
2023-01-15T18:46:24.760Z,13.38
2023-01-15T18:48:10.350Z,13.63
2023-01-15T18:49:14.844Z,14.20
2023-01-15T18:50:25.708Z,14.27
2023-01-15T18:51:31.576Z,15.00
2023-01-15T18:52:56.712Z,15.07
2023-01-15T18:54:11.709Z,13.98
2023-01-15T18:55:31.238Z,15.10
2023-01-15T18:56:42.796Z,14.68
2023-01-15T18:57:47.676Z,14.55
2023-01-15T18:58:58.212Z,15.23
2023-01-15T19:00:08.488Z,15.13
2023-01-15T19:01:20.679Z,15.52
2023-01-15T19:02:30.067Z,14.02
2023-01-15T19:05:24.932Z,14.05
2023-01-15T19:06:53.185Z,13.70
2023-01-15T19:08:00.895Z,14.18
2023-01-15T19:09:13.981Z,12.70
2023-01-15T19:10:23.223Z,14.10
2023-01-15T19:11:50.457Z,14.80
2023-01-15T19:12:55.036Z,15.02
2023-01-15T19:14:19.565Z,15.70
2023-01-15T19:15:42.958Z,14.02
2023-01-15T19:17:05.034Z,13.80
2023-01-15T19:18:31.709Z,13.77
2023-01-15T19:20:01.546Z,13.73
2023-01-15T19:21:14.672Z,14.10
2023-01-15T19:22:40.481Z,14.30
2023-01-15T19:23:55.186Z,14.35
2023-01-15T19:25:01.502Z,14.35
2023-01-15T19:26:08.029Z,15.15
2023-01-15T19:27:28.143Z,14.55
2023-01-15T19:28:43.390Z,15.88
2023-01-15T19:29:53.519Z,14.90
2023-01-15T19:31:36.639Z,13.93
2023-01-15T19:32:47.163Z,15.23
2023-01-15T19:34:31.151Z,15.32
2023-01-15T19:35:53.067Z,15.52
2023-01-15T19:37:09.114Z,13.98
2023-01-15T19:38:26.618Z,14.70
2023-01-15T19:39:36.721Z,13.35
2023-01-15T19:40:46.917Z,13.93
2023-01-15T19:42:20.111Z,14.35
2023-01-15T19:43:47.525Z,14.82
2023-01-15T19:45:13.524Z,14.30
2023-01-15T19:46:41.690Z,14.55
2023-01-15T19:48:06.915Z,14.30
2023-01-15T19:49:43.135Z,14.63
2023-01-15T19:50:49.805Z,14.45
2023-01-15T19:52:22.123Z,13.18
2023-01-15T19:53:28.812Z,13.30
2023-01-15T19:54:55.490Z,13.82
2023-01-15T19:56:17.270Z,13.65
2023-01-15T19:57:27.534Z,13.05
2023-01-15T19:58:42.482Z,14.15
2023-01-15T19:59:56.061Z,13.70
2023-01-15T20:01:18.658Z,13.02
2023-01-15T20:02:30.959Z,14.18
2023-01-15T20:06:06.982Z,14.13
2023-01-15T20:07:29.287Z,13.55
2023-01-15T20:09:05.536Z,13.60
2023-01-15T20:10:41.403Z,13.73
2023-01-15T20:12:08.351Z,13.00
2023-01-15T20:13:38.131Z,13.70
2023-01-15T20:15:27.626Z,13.95
2023-01-15T20:16:32.074Z,12.43
2023-01-15T20:19:33.278Z,13.32
2023-01-15T20:25:55.720Z,14.50
2023-01-15T20:27:11.721Z,14.43
2023-01-15T20:28:27.876Z,14.07
2023-01-15T20:29:40.650Z,14.85
2023-01-15T20:30:47.778Z,14.77
2023-01-15T20:31:57.378Z,14.20
2023-01-15T20:33:07.650Z,15.07
2023-01-15T20:36:09.727Z,16.23
2023-01-15T20:37:19.581Z,15.63
2023-01-15T20:38:31.615Z,14.35
2023-01-15T20:39:37.789Z,16.58
2023-01-15T20:40:49.065Z,16.45
2023-01-15T20:42:13.265Z,15.60
2023-01-15T20:43:43.440Z,16.00
2023-01-15T20:44:56.593Z,14.57
2023-01-15T20:46:20.911Z,15.30
2023-01-15T20:47:48.918Z,16.40
2023-01-15T20:49:11.313Z,15.30
2023-01-15T20:50:17.651Z,15.02
2023-01-15T20:51:41.387Z,16.48
2023-01-15T20:52:50.566Z,16.73
2023-01-15T20:54:02.194Z,16.45
2023-01-15T20:55:09.043Z,17.02
2023-01-15T20:56:19.409Z,16.23
2023-01-15T20:57:30.245Z,17.02
2023-01-15T20:58:35.947Z,16.65
2023-01-15T20:59:39.771Z,16.85
2023-01-15T21:00:43.160Z,16.80
2023-01-15T21:01:51.308Z,16.73
2023-01-15T21:03:02.241Z,16.85
2023-01-15T21:04:14.893Z,17.05
2023-01-15T21:05:21.916Z,18.27
2023-01-15T21:06:28.050Z,18.13
2023-01-15T21:07:33.892Z,17.77
2023-01-15T21:08:37.524Z,18.23
2023-01-15T21:09:40.990Z,17.08
2023-01-15T21:10:59.127Z,18.60
2023-01-15T21:12:03.281Z,17.63
2023-01-15T21:14:15.870Z,16.40
2023-01-15T21:15:20.544Z,17.95
2023-01-15T21:16:27.037Z,17.48
2023-01-15T21:17:31.520Z,17.80
2023-01-15T21:18:45.465Z,17.55
2023-01-15T21:19:49.481Z,17.38
2023-01-15T21:20:58.625Z,16.92
2023-01-15T21:22:05.708Z,17.63
2023-01-15T21:23:10.965Z,17.13
2023-01-15T21:24:17.417Z,17.77
2023-01-15T21:25:22.260Z,18.15
2023-01-15T21:26:27.341Z,18.45
2023-01-15T21:27:33.634Z,17.73
2023-01-15T21:28:39.344Z,18.88
2023-01-15T21:29:48.987Z,18.45
2023-01-15T21:30:52.070Z,18.33
2023-01-15T21:32:00.650Z,18.33
2023-01-15T21:33:12.540Z,18.58
2023-01-15T21:34:20.080Z,17.70
2023-01-15T21:35:23.438Z,18.67
2023-01-15T21:36:28.252Z,19.13
2023-01-15T21:37:31.675Z,19.10
2023-01-15T21:38:35.830Z,17.60
2023-01-15T21:39:39.424Z,18.65
2023-01-15T21:40:42.699Z,18.48
2023-01-15T21:42:04.743Z,18.15
2023-01-15T21:43:26.493Z,17.15
2023-01-15T21:44:32.587Z,17.98
2023-01-15T21:45:38.941Z,17.85
2023-01-15T21:46:43.471Z,18.33
2023-01-15T21:47:49.898Z,17.40
2023-01-15T21:48:53.268Z,18.15
2023-01-15T21:50:00.218Z,19.40
2023-01-15T21:51:06.676Z,19.08
2023-01-15T21:52:15.966Z,18.10
2023-01-15T21:53:21.077Z,17.20
2023-01-15T21:54:25.347Z,19.00
2023-01-15T21:55:30.895Z,18.80
2023-01-15T21:56:38.907Z,18.58
2023-01-15T21:57:45.178Z,18.45
2023-01-15T21:58:51.250Z,18.13
2023-01-15T22:00:00.383Z,19.15
2023-01-15T22:01:14.870Z,18.13
2023-01-15T22:02:22.058Z,16.90
2023-01-15T22:03:25.809Z,18.55
2023-01-15T22:04:31.559Z,18.35
2023-01-15T22:05:34.858Z,18.65
2023-01-15T22:06:38.220Z,18.50
2023-01-15T22:07:41.623Z,18.33
2023-01-15T22:08:48.257Z,19.08
2023-01-15T22:09:52.958Z,17.17
2023-01-15T22:11:06.890Z,17.45
2023-01-15T22:12:10.907Z,19.00
2023-01-15T22:13:14.572Z,18.70
2023-01-15T22:14:22.184Z,16.58
2023-01-15T22:15:32.513Z,19.50
2023-01-15T22:16:36.913Z,18.70
2023-01-15T22:17:40.546Z,17.50
2023-01-15T22:18:49.846Z,18.27
2023-01-15T22:19:53.237Z,17.27
2023-01-15T22:21:02.036Z,19.75
2023-01-15T22:22:10.938Z,19.17
2023-01-15T22:23:14.799Z,18.08
2023-01-15T22:24:23.229Z,18.45
2023-01-15T22:25:28.809Z,19.27
2023-01-15T22:26:35.784Z,18.90
2023-01-15T22:27:43.977Z,18.45
2023-01-15T22:28:48.154Z,20.98
2023-01-15T22:29:52.074Z,19.73
2023-01-15T22:30:57.704Z,19.92
2023-01-15T22:32:03.698Z,20.80
2023-01-15T22:33:06.918Z,20.35
2023-01-15T22:34:13.236Z,20.85
2023-01-15T22:35:19.401Z,20.45
2023-01-15T22:36:24.598Z,21.00
2023-01-15T22:37:37.187Z,21.20
2023-01-15T22:38:42.125Z,19.17
2023-01-15T22:39:46.415Z,20.60
2023-01-15T22:40:50.074Z,21.15
2023-01-15T22:42:14.761Z,21.23
2023-01-15T22:43:27.603Z,21.08
2023-01-15T22:44:31.761Z,20.63
2023-01-15T22:45:41.151Z,19.50
2023-01-15T22:46:45.542Z,20.38
2023-01-15T22:47:48.884Z,19.73
2023-01-15T22:48:54.476Z,19.50
2023-01-15T22:49:58.695Z,21.23
2023-01-15T22:51:03.300Z,20.13
2023-01-15T22:52:11.592Z,19.95
2023-01-15T22:53:16.774Z,18.38
2023-01-15T22:54:20.789Z,19.35
2023-01-15T22:55:25.026Z,18.35
2023-01-15T22:56:28.923Z,17.50
2023-01-15T22:57:32.742Z,18.60
2023-01-15T22:58:42.679Z,18.70
2023-01-15T22:59:48.021Z,19.02
2023-01-15T23:00:57.697Z,16.98
2023-01-15T23:02:01.572Z,16.98
2023-01-15T23:03:08.362Z,17.17
2023-01-15T23:04:19.244Z,17.42
2023-01-15T23:05:26.000Z,16.33
2023-01-15T23:06:29.928Z,17.95
2023-01-15T23:07:35.587Z,17.50
2023-01-15T23:09:01.274Z,18.63
2023-01-15T23:10:13.452Z,17.80
2023-01-15T23:11:17.786Z,17.58
2023-01-15T23:12:24.350Z,17.60
2023-01-15T23:13:41.184Z,17.27
2023-01-15T23:14:57.548Z,18.65
2023-01-15T23:16:12.861Z,17.83
2023-01-15T23:17:38.748Z,16.50
2023-01-15T23:18:43.397Z,16.90
2023-01-15T23:19:52.218Z,17.58
2023-01-15T23:21:06.385Z,17.52
2023-01-15T23:22:19.582Z,16.25
2023-01-15T23:23:30.129Z,16.88
2023-01-15T23:24:37.037Z,16.73
2023-01-15T23:25:40.650Z,16.85
2023-01-15T23:26:51.537Z,18.55
2023-01-15T23:27:54.628Z,17.13
2023-01-15T23:28:58.672Z,17.75
2023-01-15T23:30:07.129Z,17.75
2023-01-15T23:31:16.302Z,17.75
2023-01-15T23:32:32.560Z,16.65
2023-01-15T23:33:50.096Z,16.58
2023-01-15T23:35:03.044Z,16.92
2023-01-15T23:36:13.609Z,17.80
2023-01-15T23:37:24.395Z,18.10
2023-01-15T23:38:49.401Z,15.68
2023-01-15T23:41:00.353Z,17.35
2023-01-15T23:42:21.864Z,17.08
2023-01-15T23:43:45.998Z,16.88
2023-01-15T23:45:12.245Z,16.58
2023-01-15T23:46:33.596Z,16.60
2023-01-15T23:47:38.045Z,16.45
2023-01-15T23:48:41.388Z,16.98
2023-01-15T23:49:54.741Z,16.17
2023-01-15T23:50:57.957Z,18.00
2023-01-15T23:52:14.902Z,17.35
2023-01-15T23:54:52.749Z,17.35
2023-01-15T23:56:00.819Z,17.48
2023-01-15T23:57:04.223Z,17.05
2023-01-15T23:58:10.276Z,17.60
2023-01-15T23:59:13.856Z,17.17
